createdAt,value
2022-07-25T00:01:50.339Z,35.34
2022-07-25T00:04:17.502Z,35.10
2022-07-25T00:06:45.901Z,35.42
2022-07-25T00:09:12.784Z,35.35
2022-07-25T00:11:39.669Z,35.12
2022-07-25T00:14:06.996Z,35.38
2022-07-25T00:16:34.451Z,35.21
2022-07-25T00:19:01.360Z,35.37
2022-07-25T00:21:28.492Z,35.33
2022-07-25T00:23:55.196Z,35.18
2022-07-25T00:26:21.955Z,35.44
2022-07-25T00:28:48.611Z,35.46
2022-07-25T00:31:15.549Z,35.26
2022-07-25T00:33:42.261Z,35.18
2022-07-25T00:36:09.359Z,35.86
2022-07-25T00:38:36.311Z,34.97
2022-07-25T00:41:04.746Z,35.76
2022-07-25T00:43:31.775Z,35.40
2022-07-25T00:45:59.553Z,35.43
2022-07-25T00:48:28.575Z,35.68
2022-07-25T00:50:56.461Z,35.37
2022-07-25T00:53:23.888Z,35.34
2022-07-25T00:55:50.703Z,35.61
2022-07-25T00:58:18.956Z,35.62
2022-07-25T01:00:46.614Z,35.50
2022-07-25T01:03:13.408Z,35.78
2022-07-25T01:05:40.402Z,35.80
2022-07-25T01:08:08.907Z,35.84
2022-07-25T01:10:36.268Z,35.64
2022-07-25T01:13:03.117Z,35.97
2022-07-25T01:15:30.250Z,35.68
2022-07-25T01:17:56.975Z,36.26
2022-07-25T01:20:26.626Z,35.90
2022-07-25T01:22:54.508Z,36.03
2022-07-25T01:25:21.866Z,36.62
2022-07-25T01:27:54.614Z,35.66
2022-07-25T01:30:23.938Z,35.67
2022-07-25T01:32:51.242Z,36.17
2022-07-25T01:35:17.983Z,36.10
2022-07-25T01:37:45.837Z,35.82
2022-07-25T01:40:13.755Z,35.60
2022-07-25T01:42:40.482Z,35.63
2022-07-25T01:45:08.023Z,35.75
2022-07-25T01:47:34.918Z,35.76
2022-07-25T01:50:01.772Z,36.28
2022-07-25T01:52:28.458Z,36.04
2022-07-25T01:54:55.413Z,35.71
2022-07-25T01:57:23.333Z,35.91
2022-07-25T01:59:57.367Z,36.51
2022-07-25T02:02:24.114Z,36.37
2022-07-25T02:04:50.848Z,36.53
2022-07-25T02:07:17.613Z,37.17
2022-07-25T02:09:44.337Z,36.83
2022-07-25T02:12:11.012Z,36.98
2022-07-25T02:14:37.822Z,37.23
2022-07-25T02:17:04.527Z,37.17
2022-07-25T02:19:31.322Z,37.25
2022-07-25T02:21:58.017Z,36.81
2022-07-25T02:24:24.782Z,37.03
2022-07-25T02:26:51.522Z,36.96
2022-07-25T02:29:18.490Z,36.96
2022-07-25T02:31:48.836Z,37.29
2022-07-25T02:34:15.493Z,37.93
2022-07-25T02:36:42.261Z,38.10
2022-07-25T02:39:08.934Z,39.04
2022-07-25T02:41:35.743Z,39.35
2022-07-25T02:44:02.609Z,39.53
2022-07-25T02:46:29.578Z,39.41
2022-07-25T02:48:56.371Z,38.70
2022-07-25T02:51:23.339Z,39.19
2022-07-25T02:53:59.130Z,38.81
2022-07-25T02:56:30.088Z,38.22
2022-07-25T02:58:57.661Z,37.81
2022-07-25T03:01:24.581Z,37.44
2022-07-25T03:03:51.588Z,36.82
2022-07-25T03:06:18.364Z,36.49
2022-07-25T03:08:45.065Z,36.34
2022-07-25T03:11:13.006Z,36.27
2022-07-25T03:13:39.747Z,36.03
2022-07-25T03:16:06.791Z,36.01
2022-07-25T03:18:33.548Z,35.81
2022-07-25T03:21:00.227Z,36.29
2022-07-25T03:23:28.385Z,36.79
2022-07-25T03:25:56.094Z,37.55
2022-07-25T03:28:24.856Z,37.68
2022-07-25T03:30:52.266Z,37.82
2022-07-25T03:33:19.168Z,38.00
2022-07-25T03:35:45.975Z,38.21
2022-07-25T03:38:12.676Z,38.73
2022-07-25T03:40:39.690Z,38.73
2022-07-25T03:43:06.610Z,38.85
2022-07-25T03:45:33.372Z,38.87
2022-07-25T03:48:01.008Z,38.43
2022-07-25T03:50:27.712Z,38.87
2022-07-25T03:52:54.413Z,38.90
2022-07-25T03:55:21.256Z,38.40
2022-07-25T03:57:47.921Z,38.81
2022-07-25T04:00:15.648Z,38.84
2022-07-25T04:02:42.592Z,38.91
2022-07-25T04:05:10.192Z,38.50
2022-07-25T04:07:37.263Z,38.64
2022-07-25T04:10:06.390Z,38.66
2022-07-25T04:12:33.470Z,38.56
2022-07-25T04:15:00.109Z,38.56
2022-07-25T04:17:26.809Z,37.87
2022-07-25T04:19:53.488Z,37.77
2022-07-25T04:22:20.527Z,38.37
2022-07-25T04:24:47.295Z,37.51
2022-07-25T04:27:13.995Z,38.08
2022-07-25T04:29:40.641Z,37.64
2022-07-25T04:32:07.759Z,37.35
2022-07-25T04:34:34.574Z,37.32
2022-07-25T04:37:01.348Z,37.36
2022-07-25T04:39:28.099Z,37.17
2022-07-25T04:41:54.798Z,37.14
2022-07-25T04:44:21.444Z,37.30
2022-07-25T04:46:48.176Z,37.17
2022-07-25T04:49:14.842Z,36.63
2022-07-25T04:51:41.622Z,36.34
2022-07-25T04:54:09.822Z,36.09
2022-07-25T04:56:37.054Z,36.73
2022-07-25T04:59:06.595Z,36.87
2022-07-25T05:01:35.351Z,36.04
2022-07-25T05:04:02.153Z,36.23
2022-07-25T05:06:29.223Z,36.16
2022-07-25T05:08:55.989Z,36.23
2022-07-25T05:11:22.769Z,36.08
2022-07-25T05:13:49.454Z,35.89
2022-07-25T05:16:16.368Z,35.90
2022-07-25T05:18:43.113Z,36.13
2022-07-25T05:21:11.655Z,35.54
2022-07-25T05:23:38.402Z,35.45
2022-07-25T05:26:05.252Z,35.03
2022-07-25T05:28:31.868Z,34.65
2022-07-25T05:30:58.632Z,34.19
2022-07-25T05:33:26.579Z,34.04
2022-07-25T05:35:53.390Z,33.98
2022-07-25T05:38:20.530Z,33.90
2022-07-25T05:40:48.112Z,33.58
2022-07-25T05:43:14.884Z,33.83
2022-07-25T05:45:41.791Z,33.34
2022-07-25T05:48:08.882Z,33.18
2022-07-25T05:50:39.679Z,33.51
2022-07-25T05:53:07.077Z,33.27
2022-07-25T05:55:33.790Z,33.39
2022-07-25T05:58:02.385Z,33.51
2022-07-25T06:00:29.565Z,33.31
2022-07-25T06:02:58.371Z,32.72
2022-07-25T06:05:25.168Z,33.29
2022-07-25T06:07:51.899Z,32.82
2022-07-25T06:10:18.648Z,33.09
2022-07-25T06:12:45.425Z,32.86
2022-07-25T06:15:19.741Z,32.71
2022-07-25T06:17:53.662Z,32.26
2022-07-25T06:20:20.665Z,32.62
2022-07-25T06:22:47.388Z,32.48
2022-07-25T06:25:15.026Z,32.40
2022-07-25T06:27:41.828Z,31.89
2022-07-25T06:30:19.142Z,31.21
2022-07-25T06:32:48.507Z,31.29
2022-07-25T06:35:15.922Z,30.65
2022-07-25T06:37:42.964Z,30.65
2022-07-25T06:40:10.348Z,30.34
2022-07-25T06:42:44.984Z,30.06
2022-07-25T06:45:13.690Z,30.22
2022-07-25T06:47:42.452Z,29.95
2022-07-25T06:50:12.037Z,30.18
2022-07-25T06:52:39.954Z,29.68
2022-07-25T06:55:08.549Z,29.87
2022-07-25T06:57:36.112Z,30.02
2022-07-25T07:00:07.215Z,29.84
2022-07-25T07:02:33.876Z,29.86
2022-07-25T07:05:00.563Z,29.58
2022-07-25T07:07:27.802Z,29.13
2022-07-25T07:09:54.442Z,29.22
2022-07-25T07:12:22.114Z,29.35
2022-07-25T07:14:48.813Z,29.14
2022-07-25T07:17:15.394Z,29.35
2022-07-25T07:19:44.588Z,29.42
2022-07-25T07:22:11.570Z,29.68
2022-07-25T07:24:44.075Z,29.14
2022-07-25T07:27:11.944Z,29.06
2022-07-25T07:29:38.769Z,28.91
2022-07-25T07:32:07.093Z,29.08
2022-07-25T07:34:34.033Z,28.65
2022-07-25T07:37:00.796Z,28.52
2022-07-25T07:39:27.354Z,28.43
2022-07-25T07:41:54.144Z,29.13
2022-07-25T07:44:20.682Z,28.17
2022-07-25T07:46:47.504Z,28.70
2022-07-25T07:49:14.146Z,28.47
2022-07-25T07:51:40.918Z,28.03
2022-07-25T07:54:26.276Z,27.74
2022-07-25T07:56:53.056Z,27.92
2022-07-25T07:59:19.630Z,27.38
2022-07-25T08:01:46.389Z,28.24
2022-07-25T08:04:12.998Z,27.20
2022-07-25T08:06:40.687Z,27.67
2022-07-25T08:09:07.609Z,27.34
2022-07-25T08:11:35.024Z,27.62
2022-07-25T08:14:01.849Z,27.46
2022-07-25T08:16:28.697Z,27.30
2022-07-25T08:18:55.398Z,27.07
2022-07-25T08:21:21.982Z,26.82
2022-07-25T08:23:48.669Z,26.36
2022-07-25T08:26:15.895Z,26.63
2022-07-25T08:28:42.811Z,26.19
2022-07-25T08:31:10.352Z,25.88
2022-07-25T08:33:37.465Z,26.44
2022-07-25T08:36:04.455Z,25.74
2022-07-25T08:38:31.365Z,25.49
2022-07-25T08:40:58.868Z,25.35
2022-07-25T08:43:25.670Z,25.48
2022-07-25T08:45:54.655Z,25.38
2022-07-25T08:48:24.464Z,25.42
2022-07-25T08:50:52.764Z,24.87
2022-07-25T08:53:36.292Z,24.92
2022-07-25T08:56:14.886Z,25.06
2022-07-25T08:58:45.777Z,24.65
2022-07-25T09:01:13.646Z,24.98
2022-07-25T09:03:42.194Z,24.90
2022-07-25T09:06:20.321Z,24.64
2022-07-25T09:08:56.048Z,25.54
2022-07-25T09:11:27.608Z,25.05
2022-07-25T09:14:20.386Z,25.10
2022-07-25T09:16:47.473Z,25.38
2022-07-25T09:19:21.528Z,25.45
2022-07-25T09:22:06.453Z,25.01
2022-07-25T09:24:36.900Z,25.27
2022-07-25T09:27:12.460Z,24.73
2022-07-25T09:29:40.794Z,25.26
2022-07-25T09:32:22.182Z,24.94
2022-07-25T09:34:50.134Z,24.71
2022-07-25T09:37:19.655Z,24.71
2022-07-25T09:39:48.750Z,24.68
2022-07-25T09:42:32.090Z,25.48
2022-07-25T09:45:03.179Z,24.88
2022-07-25T09:47:33.418Z,25.04
2022-07-25T09:50:00.592Z,24.32
2022-07-25T09:52:27.383Z,24.94
2022-07-25T09:54:54.964Z,24.95
2022-07-25T09:57:24.163Z,25.13
2022-07-25T09:59:50.989Z,25.46
2022-07-25T10:02:50.899Z,25.09
2022-07-25T10:05:23.823Z,25.15
2022-07-25T10:07:53.025Z,24.50
2022-07-25T10:10:26.076Z,24.56
2022-07-25T10:13:11.210Z,24.67
2022-07-25T10:15:51.876Z,24.27
2022-07-25T10:18:20.883Z,24.46
2022-07-25T10:20:49.929Z,24.04
2022-07-25T10:23:28.451Z,24.25
2022-07-25T10:26:16.246Z,24.24
2022-07-25T10:28:47.746Z,23.91
2022-07-25T10:31:25.063Z,23.93
2022-07-25T10:34:01.939Z,24.14
2022-07-25T10:36:42.201Z,24.32
2022-07-25T10:39:11.937Z,23.58
2022-07-25T10:41:40.140Z,23.41
2022-07-25T10:44:13.911Z,24.33
2022-07-25T10:46:44.060Z,23.09
2022-07-25T10:49:31.053Z,23.32
2022-07-25T10:52:05.926Z,23.84
2022-07-25T10:54:39.572Z,23.46
2022-07-25T10:57:14.851Z,23.65
2022-07-25T10:59:41.728Z,23.20
2022-07-25T11:02:16.390Z,23.41
2022-07-25T11:04:59.863Z,23.12
2022-07-25T11:07:28.736Z,23.62
2022-07-25T11:10:00.367Z,23.03
2022-07-25T11:12:28.811Z,23.52
2022-07-25T11:15:07.305Z,23.43
2022-07-25T11:17:34.624Z,22.66
2022-07-25T11:20:05.884Z,23.05
2022-07-25T11:22:34.545Z,23.33
2022-07-25T11:25:02.392Z,23.29
2022-07-25T11:27:33.468Z,22.94
2022-07-25T11:30:10.296Z,22.39
2022-07-25T11:32:40.571Z,22.57
2022-07-25T11:35:08.314Z,23.38
2022-07-25T11:37:39.333Z,22.96
2022-07-25T11:40:07.150Z,23.13
2022-07-25T11:42:48.249Z,22.92
2022-07-25T11:45:25.640Z,22.51
2022-07-25T11:48:13.836Z,22.91
2022-07-25T11:50:42.848Z,22.60
2022-07-25T11:53:14.059Z,22.63
2022-07-25T11:55:44.874Z,23.01
2022-07-25T11:58:13.320Z,22.93
2022-07-25T12:00:42.270Z,23.72
2022-07-25T12:03:19.549Z,23.09
2022-07-25T12:05:47.476Z,22.78
2022-07-25T12:08:20.011Z,23.05
2022-07-25T12:10:49.296Z,23.81
2022-07-25T12:13:30.127Z,23.73
2022-07-25T12:15:58.684Z,23.03
2022-07-25T12:18:25.908Z,22.65
2022-07-25T12:20:53.295Z,21.37
2022-07-25T12:23:21.865Z,20.38
2022-07-25T12:25:49.258Z,20.32
2022-07-25T12:28:16.205Z,21.59
2022-07-25T12:30:45.133Z,22.73
2022-07-25T12:33:13.000Z,23.05
2022-07-25T12:35:44.131Z,23.94
2022-07-25T12:38:11.613Z,23.01
2022-07-25T12:40:38.646Z,23.98
2022-07-25T12:43:05.704Z,24.28
2022-07-25T12:45:33.246Z,24.56
2022-07-25T12:48:00.075Z,25.25
2022-07-25T12:50:27.009Z,24.77
2022-07-25T12:52:53.851Z,24.53
2022-07-25T12:55:21.254Z,25.19
2022-07-25T12:57:49.712Z,24.83
2022-07-25T13:00:19.199Z,24.28
2022-07-25T13:02:46.255Z,23.26
2022-07-25T13:05:13.026Z,22.50
2022-07-25T13:07:40.344Z,22.46
2022-07-25T13:10:07.745Z,22.41
2022-07-25T13:12:35.196Z,21.65
2022-07-25T13:15:02.507Z,22.20
2022-07-25T13:17:29.343Z,22.22
2022-07-25T13:19:57.103Z,22.65
2022-07-25T13:22:25.263Z,22.58
2022-07-25T13:24:52.588Z,20.49
2022-07-25T13:27:20.680Z,19.79
2022-07-25T13:29:47.520Z,20.63
2022-07-25T13:32:14.359Z,20.89
2022-07-25T13:34:41.112Z,21.82
2022-07-25T13:37:07.940Z,22.41
2022-07-25T13:39:35.850Z,22.16
2022-07-25T13:42:03.157Z,22.54
2022-07-25T13:44:29.849Z,22.45
2022-07-25T13:46:57.500Z,22.27
2022-07-25T13:49:25.297Z,22.37
2022-07-25T13:51:52.141Z,22.63
2022-07-25T13:54:18.823Z,23.12
2022-07-25T13:56:45.639Z,22.90
2022-07-25T13:59:17.344Z,23.41
2022-07-25T14:01:47.644Z,23.79
2022-07-25T14:04:15.541Z,23.07
2022-07-25T14:06:42.574Z,24.11
2022-07-25T14:09:09.832Z,24.24
2022-07-25T14:11:36.822Z,24.17
2022-07-25T14:14:03.786Z,24.03
2022-07-25T14:16:30.847Z,24.44
2022-07-25T14:18:57.668Z,24.65
2022-07-25T14:21:24.457Z,25.10
2022-07-25T14:23:52.336Z,25.13
2022-07-25T14:26:19.114Z,25.23
2022-07-25T14:28:45.828Z,25.27
2022-07-25T14:31:12.699Z,25.08
2022-07-25T14:33:40.182Z,25.43
2022-07-25T14:36:09.276Z,26.55
2022-07-25T14:38:35.965Z,27.66
2022-07-25T14:41:05.679Z,28.37
2022-07-25T14:43:35.808Z,27.99
2022-07-25T14:46:02.433Z,27.39
2022-07-25T14:48:29.309Z,26.93
2022-07-25T14:50:56.030Z,26.68
2022-07-25T14:53:22.840Z,26.94
2022-07-25T14:55:49.577Z,26.30
2022-07-25T14:58:16.274Z,26.66
2022-07-25T15:00:43.758Z,27.33
2022-07-25T15:03:10.620Z,26.33
2022-07-25T15:05:38.476Z,26.15
2022-07-25T15:08:06.601Z,26.57
2022-07-25T15:10:33.602Z,26.56
2022-07-25T15:13:28.329Z,27.00
2022-07-25T15:15:48.268Z,26.63
2022-07-25T15:18:15.102Z,26.87
2022-07-25T15:20:41.876Z,27.09
2022-07-25T15:23:08.703Z,26.47
2022-07-25T15:26:00.644Z,26.51
2022-07-25T15:28:22.417Z,25.23
2022-07-25T15:30:50.336Z,25.40
2022-07-25T15:33:20.363Z,25.31
2022-07-25T15:35:48.255Z,25.36
2022-07-25T15:38:15.893Z,24.09
2022-07-25T15:40:44.258Z,24.42
2022-07-25T15:43:11.569Z,24.24
2022-07-25T15:45:44.249Z,24.60
2022-07-25T15:48:13.157Z,24.93
2022-07-25T15:50:43.235Z,24.52
2022-07-25T15:53:10.673Z,24.57
2022-07-25T15:55:38.710Z,25.02
2022-07-25T15:58:06.595Z,25.19
2022-07-25T16:00:34.002Z,25.03
2022-07-25T16:03:00.983Z,24.82
2022-07-25T16:05:27.730Z,25.83
2022-07-25T16:07:54.601Z,25.49
2022-07-25T16:10:21.433Z,26.06
2022-07-25T16:12:48.649Z,26.43
2022-07-25T16:15:16.180Z,26.54
2022-07-25T16:17:43.047Z,26.90
2022-07-25T16:20:10.424Z,26.75
2022-07-25T16:22:39.471Z,26.10
2022-07-25T16:25:06.811Z,25.79
2022-07-25T16:27:33.659Z,26.50
2022-07-25T16:30:01.128Z,26.27
2022-07-25T16:32:27.977Z,26.16
2022-07-25T16:34:54.624Z,26.54
2022-07-25T16:37:21.470Z,27.19
2022-07-25T16:39:48.259Z,27.03
2022-07-25T16:42:15.017Z,27.84
2022-07-25T16:44:41.679Z,28.04
2022-07-25T16:47:08.832Z,28.50
2022-07-25T16:49:35.662Z,28.10
2022-07-25T16:52:02.838Z,28.72
2022-07-25T16:54:29.588Z,28.95
2022-07-25T16:56:59.603Z,28.62
2022-07-25T16:59:27.194Z,29.00
2022-07-25T17:01:54.228Z,29.64
2022-07-25T17:04:21.286Z,29.71
2022-07-25T17:06:49.177Z,30.14
2022-07-25T17:09:16.052Z,34.46
2022-07-25T17:11:43.123Z,35.55
2022-07-25T17:14:09.978Z,37.77
2022-07-25T17:16:36.809Z,39.38
2022-07-25T17:19:04.383Z,40.28
2022-07-25T17:21:32.450Z,40.66
2022-07-25T17:23:59.250Z,42.06
2022-07-25T17:26:25.832Z,45.00
2022-07-25T17:28:53.758Z,44.35
2022-07-25T17:31:20.651Z,45.42
2022-07-25T17:33:47.776Z,46.18
2022-07-25T17:36:14.544Z,45.46
2022-07-25T17:38:41.283Z,46.00
2022-07-25T17:41:07.938Z,45.95
2022-07-25T17:43:34.778Z,45.64
2022-07-25T17:46:01.635Z,46.58
2022-07-25T17:48:28.587Z,48.13
2022-07-25T17:50:55.181Z,47.24
2022-07-25T17:53:21.892Z,47.67
2022-07-25T17:55:48.675Z,48.00
2022-07-25T17:58:15.388Z,48.49
2022-07-25T18:00:42.124Z,50.06
2022-07-25T18:03:09.243Z,48.70
2022-07-25T18:05:36.041Z,47.83
2022-07-25T18:08:03.257Z,48.39
2022-07-25T18:10:30.272Z,48.08
2022-07-25T18:13:00.247Z,47.58
2022-07-25T18:15:27.059Z,47.54
2022-07-25T18:17:54.130Z,48.11
2022-07-25T18:20:21.281Z,46.90
2022-07-25T18:22:48.069Z,47.80
2022-07-25T18:25:15.268Z,47.35
2022-07-25T18:27:43.927Z,47.92
2022-07-25T18:30:11.700Z,46.70
2022-07-25T18:32:39.311Z,47.97
2022-07-25T18:35:07.891Z,47.41
2022-07-25T18:37:35.469Z,47.00
2022-07-25T18:40:02.186Z,47.17
2022-07-25T18:42:30.025Z,47.47
2022-07-25T18:44:57.351Z,46.24
2022-07-25T18:47:26.805Z,46.21
2022-07-25T18:49:59.748Z,47.04
2022-07-25T18:52:27.189Z,46.17
2022-07-25T18:54:53.868Z,46.30
2022-07-25T18:57:20.724Z,45.46
2022-07-25T18:59:47.775Z,45.25
2022-07-25T19:02:14.487Z,46.43
2022-07-25T19:04:41.367Z,47.77
2022-07-25T19:07:08.956Z,47.58
2022-07-25T19:09:35.775Z,51.02
2022-07-25T19:12:05.456Z,52.54
2022-07-25T19:14:32.235Z,54.53
2022-07-25T19:16:59.467Z,56.55
2022-07-25T19:19:26.981Z,59.61
2022-07-25T19:21:53.861Z,61.04
2022-07-25T19:24:21.103Z,59.83
2022-07-25T19:26:49.829Z,57.98
2022-07-25T19:29:16.941Z,60.74
2022-07-25T19:31:43.535Z,60.65
2022-07-25T19:34:11.476Z,59.72
2022-07-25T19:36:38.658Z,60.37
2022-07-25T19:39:06.261Z,61.43
2022-07-25T19:41:33.965Z,60.70
2022-07-25T19:44:00.879Z,61.61
2022-07-25T19:46:31.310Z,61.78
2022-07-25T19:48:58.425Z,61.81
2022-07-25T19:51:25.306Z,61.05
2022-07-25T19:53:52.173Z,61.68
2022-07-25T19:56:19.379Z,61.60
2022-07-25T19:58:46.614Z,61.25
2022-07-25T20:01:13.356Z,61.65
2022-07-25T20:03:41.306Z,61.36
2022-07-25T20:06:08.826Z,60.93
2022-07-25T20:08:36.854Z,60.88
2022-07-25T20:11:03.654Z,60.46
2022-07-25T20:13:30.545Z,59.83
2022-07-25T20:15:58.654Z,59.62
2022-07-25T20:18:27.844Z,60.56
2022-07-25T20:20:54.568Z,60.20
2022-07-25T20:23:23.478Z,59.56
2022-07-25T20:25:50.335Z,61.03
2022-07-25T20:28:17.137Z,59.75
2022-07-25T20:30:46.112Z,59.85
2022-07-25T20:33:15.438Z,60.87
2022-07-25T20:35:42.147Z,60.64
2022-07-25T20:38:09.472Z,60.03
2022-07-25T20:40:44.046Z,61.33
2022-07-25T20:43:15.274Z,61.08
2022-07-25T20:45:42.434Z,61.77
2022-07-25T20:48:09.498Z,60.71
2022-07-25T20:50:37.417Z,60.00
2022-07-25T20:53:06.122Z,59.00
2022-07-25T20:55:33.878Z,59.23
2022-07-25T20:58:00.734Z,59.92
2022-07-25T21:00:30.035Z,59.52
2022-07-25T21:02:58.081Z,59.51
2022-07-25T21:05:25.839Z,59.16
2022-07-25T21:07:53.216Z,59.55
2022-07-25T21:10:20.479Z,60.43
2022-07-25T21:12:47.498Z,60.09
2022-07-25T21:15:15.119Z,61.34
2022-07-25T21:17:41.919Z,60.11
2022-07-25T21:20:13.979Z,61.05
2022-07-25T21:22:41.607Z,60.57
2022-07-25T21:25:09.541Z,60.50
2022-07-25T21:27:37.168Z,60.44
2022-07-25T21:30:09.314Z,60.49
2022-07-25T21:32:36.646Z,60.36
2022-07-25T21:35:04.995Z,62.07
2022-07-25T21:37:31.918Z,61.79
2022-07-25T21:39:58.615Z,61.85
2022-07-25T21:42:25.428Z,62.33
2022-07-25T21:44:52.169Z,61.83
2022-07-25T21:47:18.953Z,61.59
2022-07-25T21:50:04.264Z,62.72
2022-07-25T21:52:34.787Z,62.09
2022-07-25T21:55:03.950Z,62.38
2022-07-25T21:57:31.201Z,61.84
2022-07-25T21:59:58.362Z,61.38
2022-07-25T22:02:25.031Z,60.49
2022-07-25T22:04:51.778Z,59.90
2022-07-25T22:07:18.615Z,59.12
2022-07-25T22:09:45.585Z,59.84
2022-07-25T22:12:12.472Z,58.98
2022-07-25T22:14:39.314Z,60.99
2022-07-25T22:17:06.217Z,60.21
2022-07-25T22:19:33.479Z,59.02
2022-07-25T22:22:00.128Z,57.74
2022-07-25T22:24:26.982Z,58.33
2022-07-25T22:26:53.765Z,59.55
2022-07-25T22:29:21.067Z,59.63
2022-07-25T22:31:47.871Z,59.30
2022-07-25T22:34:14.701Z,59.42
2022-07-25T22:36:41.368Z,59.63
2022-07-25T22:39:08.574Z,61.05
2022-07-25T22:41:35.560Z,61.66
2022-07-25T22:44:03.188Z,62.37
2022-07-25T22:46:32.540Z,62.86
2022-07-25T22:48:59.617Z,62.31
2022-07-25T22:51:27.730Z,62.17
2022-07-25T22:53:55.238Z,61.96
2022-07-25T22:56:22.482Z,61.60
2022-07-25T22:58:49.496Z,60.24
2022-07-25T23:01:17.839Z,61.01
2022-07-25T23:03:45.511Z,59.66
2022-07-25T23:06:12.575Z,59.35
2022-07-25T23:08:39.392Z,59.80
2022-07-25T23:11:06.269Z,60.23
2022-07-25T23:13:34.047Z,60.15
2022-07-25T23:16:01.713Z,60.12
2022-07-25T23:18:30.695Z,62.26
2022-07-25T23:20:57.470Z,61.83
2022-07-25T23:23:24.468Z,60.97
2022-07-25T23:25:51.319Z,60.28
2022-07-25T23:28:18.116Z,60.66
2022-07-25T23:30:44.803Z,59.07
2022-07-25T23:33:12.095Z,58.88
2022-07-25T23:35:38.628Z,57.04
2022-07-25T23:38:05.415Z,58.10
2022-07-25T23:40:32.115Z,56.70
2022-07-25T23:42:59.037Z,55.15
2022-07-25T23:45:27.928Z,54.84
2022-07-25T23:47:56.448Z,54.34
2022-07-25T23:50:23.833Z,54.29
2022-07-25T23:52:51.144Z,54.37
2022-07-25T23:55:17.863Z,54.13
2022-07-25T23:57:44.662Z,55.94
